createdAt,value
2018-12-01T00:01:51.275Z,34.95
2018-12-01T00:06:53.713Z,36.88
2018-12-01T00:11:56.161Z,34.50
2018-12-01T00:16:58.555Z,31.07
2018-12-01T00:22:01.158Z,31.50
2018-12-01T00:27:03.673Z,33.53
2018-12-01T00:32:06.050Z,34.73
2018-12-01T00:37:08.434Z,37.03
2018-12-01T00:42:10.950Z,34.58
2018-12-01T00:47:13.350Z,36.50
2018-12-01T00:52:16.887Z,36.28
2018-12-01T00:57:19.387Z,37.03
2018-12-01T01:02:27.329Z,35.63
2018-12-01T01:07:29.795Z,36.65
2018-12-01T01:12:32.216Z,36.33
2018-12-01T01:17:35.371Z,35.90
2018-12-01T01:22:37.925Z,34.88
2018-12-01T01:27:40.429Z,32.00
2018-12-01T01:32:42.892Z,31.85
2018-12-01T01:37:45.362Z,29.32
2018-12-01T01:42:47.822Z,28.85
2018-12-01T01:47:50.303Z,30.25
2018-12-01T01:52:52.791Z,30.72
2018-12-01T01:57:55.189Z,28.25
2018-12-01T02:02:57.666Z,29.02
2018-12-01T02:08:00.142Z,27.25
2018-12-01T02:13:02.711Z,27.55
2018-12-01T02:18:05.754Z,28.90
2018-12-01T02:23:08.344Z,27.75
2018-12-01T02:28:10.774Z,28.25
2018-12-01T02:33:13.189Z,26.80
2018-12-01T02:38:15.700Z,27.30
2018-12-01T02:43:18.226Z,27.50
2018-12-01T02:48:20.722Z,27.93
2018-12-01T02:53:23.408Z,26.75
2018-12-01T02:58:25.866Z,26.80
2018-12-01T03:03:28.641Z,26.07
2018-12-01T03:08:31.059Z,26.02
2018-12-01T03:13:33.622Z,24.15
2018-12-01T03:18:36.034Z,23.80
2018-12-01T03:23:38.704Z,23.87
2018-12-01T03:28:41.084Z,24.80
2018-12-01T03:33:43.619Z,23.85
2018-12-01T03:38:46.002Z,24.65
2018-12-01T03:43:48.745Z,23.80
2018-12-01T03:48:51.816Z,23.15
2018-12-01T03:53:54.441Z,22.85
2018-12-01T03:58:57.226Z,23.80
2018-12-01T04:03:59.718Z,24.40
2018-12-01T04:09:07.727Z,25.00
2018-12-01T04:14:10.234Z,26.68
2018-12-01T04:19:12.726Z,26.73
2018-12-01T04:24:15.359Z,28.12
2018-12-01T04:29:17.846Z,29.75
2018-12-01T04:34:22.380Z,29.63
2018-12-01T04:39:24.886Z,28.00
2018-12-01T04:44:27.594Z,28.57
2018-12-01T04:49:30.002Z,29.02
2018-12-01T04:54:32.542Z,27.85
2018-12-01T04:59:35.281Z,28.92
2018-12-01T05:04:37.730Z,29.10
2018-12-01T05:09:40.154Z,29.27
2018-12-01T05:14:42.600Z,30.60
2018-12-01T05:19:45.185Z,30.37
2018-12-01T05:24:47.618Z,31.90
2018-12-01T05:29:50.006Z,33.48
2018-12-01T05:34:52.430Z,31.60
2018-12-01T05:39:54.890Z,31.82
2018-12-01T05:44:57.290Z,29.82
2018-12-01T05:49:59.753Z,29.37
2018-12-01T05:55:02.362Z,30.30
2018-12-01T06:00:13.566Z,27.85
2018-12-01T06:05:16.015Z,30.65
2018-12-01T06:10:20.374Z,30.85
2018-12-01T06:15:22.883Z,29.42
2018-12-01T06:20:26.234Z,29.32
2018-12-01T06:25:28.710Z,27.70
2018-12-01T06:30:31.094Z,28.73
2018-12-01T06:35:33.538Z,28.23
2018-12-01T06:40:35.983Z,27.60
2018-12-01T06:45:38.511Z,26.50
2018-12-01T06:50:41.078Z,27.82
2018-12-01T06:55:43.688Z,29.05
2018-12-01T07:00:46.193Z,29.25
2018-12-01T07:05:48.661Z,27.48
2018-12-01T07:10:51.270Z,27.60
2018-12-01T07:15:53.742Z,26.48
2018-12-01T07:20:56.188Z,26.25
2018-12-01T07:25:58.886Z,26.07
2018-12-01T07:31:01.324Z,25.97
2018-12-01T07:36:03.740Z,24.85
2018-12-01T07:41:06.197Z,27.93
2018-12-01T07:46:08.705Z,27.37
2018-12-01T07:51:11.264Z,28.38
2018-12-01T07:56:13.742Z,26.25
2018-12-01T08:01:16.234Z,26.60
2018-12-01T08:06:18.627Z,28.85
2018-12-01T08:11:21.111Z,26.97
2018-12-01T08:16:23.558Z,28.60
2018-12-01T08:21:26.044Z,26.97
2018-12-01T08:26:28.505Z,27.22
2018-12-01T08:31:31.211Z,27.52
2018-12-01T08:36:33.611Z,25.30
2018-12-01T08:41:36.294Z,26.45
2018-12-01T08:46:38.784Z,24.87
2018-12-01T08:51:41.247Z,26.37
2018-12-01T08:56:43.820Z,23.62
2018-12-01T09:01:46.327Z,23.38
2018-12-01T09:06:48.834Z,23.73
2018-12-01T09:11:51.237Z,23.27
2018-12-01T09:17:03.043Z,23.30
2018-12-01T09:22:05.619Z,22.85
2018-12-01T09:27:10.306Z,21.65
2018-12-01T09:32:13.029Z,21.40
2018-12-01T09:37:15.593Z,20.15
2018-12-01T09:42:18.062Z,20.20
2018-12-01T09:47:20.674Z,18.10
2018-12-01T09:52:23.215Z,17.77
2018-12-01T09:57:25.712Z,18.85
2018-12-01T10:02:28.209Z,18.52
2018-12-01T10:07:31.003Z,17.70
2018-12-01T10:12:33.523Z,16.15
2018-12-01T10:17:36.454Z,15.63
2018-12-01T10:22:40.128Z,16.02
2018-12-01T10:27:42.827Z,15.15
2018-12-01T10:32:46.851Z,15.08
2018-12-01T10:37:55.611Z,14.85
2018-12-01T10:42:58.154Z,12.82
2018-12-01T10:48:00.867Z,12.80
2018-12-01T10:53:03.796Z,12.73
2018-12-01T10:58:10.407Z,12.82
2018-12-01T11:03:18.865Z,14.13
2018-12-01T11:08:21.551Z,14.60
2018-12-01T11:13:24.110Z,13.08
2018-12-01T11:18:26.567Z,13.38
2018-12-01T11:23:29.113Z,13.10
2018-12-01T11:28:31.631Z,13.58
2018-12-01T11:33:34.157Z,12.93
2018-12-01T11:38:36.608Z,13.08
2018-12-01T11:43:39.146Z,12.18
2018-12-01T11:48:41.665Z,12.47
2018-12-01T11:53:44.270Z,12.95
2018-12-01T11:58:46.719Z,12.33
2018-12-01T12:03:49.320Z,11.93
2018-12-01T12:08:51.870Z,12.50
2018-12-01T12:13:54.430Z,12.50
2018-12-01T12:18:57.008Z,10.32
2018-12-01T12:23:59.538Z,9.83
2018-12-01T12:29:02.063Z,10.20
2018-12-01T12:34:04.744Z,11.20
2018-12-01T12:39:07.366Z,11.05
2018-12-01T12:44:09.869Z,10.95
2018-12-01T12:49:12.450Z,10.65
2018-12-01T12:54:14.939Z,11.50
2018-12-01T12:59:17.481Z,12.90
2018-12-01T13:04:20.067Z,12.20
2018-12-01T13:09:22.544Z,13.15
2018-12-01T13:14:25.126Z,12.88
2018-12-01T13:19:27.697Z,11.00
2018-12-01T13:24:30.283Z,11.12
2018-12-01T13:29:32.852Z,10.53
2018-12-01T13:34:35.413Z,10.70
2018-12-01T13:39:37.905Z,10.82
2018-12-01T13:44:47.126Z,10.38
2018-12-01T13:49:50.314Z,10.00
2018-12-01T13:54:52.722Z,9.98
2018-12-01T13:59:55.182Z,9.33
2018-12-01T14:04:57.664Z,9.18
2018-12-01T14:10:00.198Z,10.65
2018-12-01T14:15:02.790Z,8.68
2018-12-01T14:20:05.811Z,9.68
2018-12-01T14:25:09.256Z,8.98
2018-12-01T14:30:13.850Z,8.43
2018-12-01T14:35:22.291Z,8.45
2018-12-01T14:40:25.424Z,6.70
2018-12-01T14:45:31.881Z,7.30
2018-12-01T14:50:35.242Z,7.50
2018-12-01T14:55:37.883Z,7.28
2018-12-01T15:00:48.816Z,7.35
2018-12-01T15:05:51.591Z,6.78
2018-12-01T15:10:54.315Z,7.25
2018-12-01T15:15:57.090Z,7.33
2018-12-01T15:21:02.101Z,7.08
2018-12-01T15:26:06.320Z,7.37
2018-12-01T15:31:09.835Z,7.45
2018-12-01T15:36:12.442Z,6.90
2018-12-01T15:41:15.184Z,7.17
2018-12-01T15:46:18.255Z,8.83
2018-12-01T15:51:21.046Z,6.12
2018-12-01T15:56:23.779Z,6.40
2018-12-01T16:01:26.787Z,6.72
2018-12-01T16:06:29.903Z,6.90
2018-12-01T16:11:33.317Z,6.40
2018-12-01T16:16:37.167Z,6.72
2018-12-01T16:21:39.808Z,6.85
2018-12-01T16:26:43.134Z,7.67
2018-12-01T16:31:47.849Z,7.30
2018-12-01T16:36:51.256Z,6.95
2018-12-01T16:41:53.739Z,9.13
2018-12-01T16:46:56.306Z,7.65
2018-12-01T16:51:58.833Z,8.00
2018-12-01T16:57:01.326Z,8.15
2018-12-01T17:02:04.003Z,7.80
2018-12-01T17:07:06.466Z,7.60
2018-12-01T17:12:08.873Z,8.00
2018-12-01T17:17:11.605Z,7.95
2018-12-01T17:22:14.070Z,8.90
2018-12-01T17:27:16.779Z,7.78
2018-12-01T17:32:19.233Z,7.78
2018-12-01T17:37:21.766Z,8.20
2018-12-01T17:42:24.438Z,7.50
2018-12-01T17:47:26.773Z,8.20
2018-12-01T17:52:29.565Z,7.53
2018-12-01T17:57:31.994Z,7.55
2018-12-01T18:02:34.493Z,8.83
2018-12-01T18:07:37.461Z,8.08
2018-12-01T18:12:40.354Z,7.95
2018-12-01T18:17:42.734Z,8.40
2018-12-01T18:22:56.194Z,8.58
2018-12-01T18:27:59.408Z,7.80
2018-12-01T18:33:18.637Z,7.80
2018-12-01T18:38:21.156Z,8.05
2018-12-01T18:43:23.799Z,7.10
2018-12-01T18:48:26.446Z,6.83
2018-12-01T18:53:29.032Z,7.40
2018-12-01T18:58:31.489Z,7.33
2018-12-01T19:03:35.414Z,6.60
2018-12-01T19:08:37.929Z,6.75
2018-12-01T19:13:40.471Z,6.42
2018-12-01T19:18:43.734Z,6.65
2018-12-01T19:23:46.225Z,7.17
2018-12-01T19:28:48.705Z,6.60
2018-12-01T19:33:51.182Z,6.85
2018-12-01T19:38:53.802Z,7.17
2018-12-01T19:43:56.207Z,7.22
2018-12-01T19:48:58.618Z,8.00
2018-12-01T19:54:01.400Z,8.55
2018-12-01T19:59:03.894Z,8.73
2018-12-01T20:04:06.914Z,7.78
2018-12-01T20:09:09.370Z,7.42
2018-12-01T20:14:14.673Z,7.42
2018-12-01T20:19:17.096Z,7.35
2018-12-01T20:24:19.781Z,7.53
2018-12-01T20:29:22.140Z,7.35
2018-12-01T20:34:24.907Z,7.40
2018-12-01T20:39:33.668Z,6.80
2018-12-01T20:44:36.685Z,6.40
2018-12-01T20:49:39.584Z,5.60
2018-12-01T20:54:45.006Z,5.72
2018-12-01T20:59:47.592Z,5.90
2018-12-01T21:04:50.075Z,5.00
2018-12-01T21:09:52.743Z,5.30
2018-12-01T21:14:55.158Z,4.70
2018-12-01T21:19:57.600Z,4.30
2018-12-01T21:25:00.450Z,4.50
2018-12-01T21:30:03.271Z,4.08
2018-12-01T21:35:07.924Z,3.75
2018-12-01T21:40:13.314Z,4.85
2018-12-01T21:45:17.007Z,4.15
2018-12-01T21:50:20.766Z,3.87
2018-12-01T21:55:23.902Z,3.90
2018-12-01T22:00:30.966Z,4.30
2018-12-01T22:05:43.027Z,3.98
2018-12-01T22:10:49.342Z,3.75
2018-12-01T22:15:51.817Z,4.12
2018-12-01T22:20:54.317Z,3.85
2018-12-01T22:25:56.780Z,4.17
2018-12-01T22:30:59.521Z,3.90
2018-12-01T22:36:01.970Z,3.95
2018-12-01T22:41:04.773Z,4.10
2018-12-01T22:46:07.674Z,3.83
2018-12-01T22:51:10.111Z,3.70
2018-12-01T22:56:12.716Z,3.52
2018-12-01T23:01:15.349Z,3.37
2018-12-01T23:06:17.914Z,4.25
2018-12-01T23:11:20.327Z,3.40
2018-12-01T23:16:23.052Z,3.40
2018-12-01T23:21:25.988Z,4.35
2018-12-01T23:26:28.507Z,4.65
2018-12-01T23:31:31.273Z,3.92
2018-12-01T23:36:34.200Z,4.42
2018-12-01T23:41:36.672Z,4.90
2018-12-01T23:46:39.142Z,3.98
2018-12-01T23:51:41.701Z,4.45
2018-12-01T23:56:44.205Z,4.78
